createdAt,value
2023-05-10T00:00:56.574Z,2426.00
2023-05-10T00:01:56.646Z,2423.00
2023-05-10T00:02:56.673Z,2436.00
2023-05-10T00:03:56.645Z,2439.00
2023-05-10T00:04:56.626Z,2430.00
2023-05-10T00:05:56.585Z,2447.00
2023-05-10T00:06:56.598Z,2423.00
2023-05-10T00:07:56.594Z,2441.00
2023-05-10T00:08:56.601Z,2441.00
2023-05-10T00:09:56.585Z,2431.00
2023-05-10T00:10:56.580Z,2439.00
2023-05-10T00:11:56.588Z,2432.00
2023-05-10T00:12:56.604Z,2426.00
2023-05-10T00:13:56.588Z,2414.00
2023-05-10T00:14:56.599Z,2438.00
2023-05-10T00:15:56.579Z,2436.00
2023-05-10T00:16:56.690Z,2431.00
2023-05-10T00:17:56.628Z,2458.00
2023-05-10T00:18:56.589Z,2480.00
2023-05-10T00:19:56.594Z,2495.00
2023-05-10T00:20:56.575Z,2514.00
2023-05-10T00:21:56.567Z,2530.00
2023-05-10T00:22:56.554Z,2517.00
2023-05-10T00:23:56.560Z,2498.00
2023-05-10T00:24:56.566Z,2504.00
2023-05-10T00:25:56.591Z,2519.00
2023-05-10T00:26:56.587Z,2529.00
2023-05-10T00:27:56.609Z,2504.00
2023-05-10T00:28:56.602Z,2516.00
2023-05-10T00:29:56.580Z,2513.00
2023-05-10T00:30:56.611Z,2495.00
2023-05-10T00:31:56.618Z,2495.00
2023-05-10T00:32:56.593Z,2499.00
2023-05-10T00:33:56.642Z,2499.00
2023-05-10T00:34:56.569Z,2502.00
2023-05-10T00:35:56.614Z,2512.00
2023-05-10T00:36:56.594Z,2499.00
2023-05-10T00:37:56.588Z,2510.00
2023-05-10T00:38:56.620Z,2490.00
2023-05-10T00:39:56.590Z,2504.00
2023-05-10T00:40:56.595Z,2524.00
2023-05-10T00:41:56.630Z,2539.00
2023-05-10T00:42:56.596Z,2539.00
2023-05-10T00:43:56.603Z,2518.00
2023-05-10T00:44:56.590Z,2520.00
2023-05-10T00:45:56.652Z,2513.00
2023-05-10T00:46:56.575Z,2527.00
2023-05-10T00:47:56.640Z,2511.00
2023-05-10T00:48:56.612Z,2514.00
2023-05-10T00:49:56.592Z,2522.00
2023-05-10T00:50:56.612Z,2518.00
2023-05-10T00:51:56.589Z,2526.00
2023-05-10T00:52:56.597Z,2512.00
2023-05-10T00:53:56.605Z,2517.00
2023-05-10T00:54:56.599Z,2505.00
2023-05-10T00:55:56.601Z,2508.00
2023-05-10T00:56:56.605Z,2513.00
2023-05-10T00:57:56.618Z,2523.00
2023-05-10T00:58:56.593Z,2541.00
2023-05-10T00:59:56.606Z,2516.00
2023-05-10T01:00:56.603Z,2524.00
2023-05-10T01:01:56.578Z,2508.00
2023-05-10T01:02:56.696Z,2498.00
2023-05-10T01:03:56.588Z,2519.00
2023-05-10T01:04:56.602Z,2509.00
2023-05-10T01:05:56.603Z,2510.00
2023-05-10T01:06:56.601Z,2504.00
2023-05-10T01:07:56.587Z,2510.00
2023-05-10T01:08:56.578Z,2524.00
2023-05-10T01:09:56.606Z,2511.00
2023-05-10T01:10:56.594Z,2506.00
2023-05-10T01:11:56.607Z,2505.00
2023-05-10T01:12:56.607Z,2520.00
2023-05-10T01:13:56.574Z,2506.00
2023-05-10T01:14:56.574Z,2510.00
2023-05-10T01:15:56.616Z,2510.00
2023-05-10T01:16:56.567Z,2511.00
2023-05-10T01:17:56.613Z,2504.00
2023-05-10T01:18:56.561Z,2509.00
2023-05-10T01:19:56.575Z,2506.00
2023-05-10T01:20:56.571Z,2521.00
2023-05-10T01:21:56.544Z,2530.00
2023-05-10T01:22:56.576Z,2539.00
2023-05-10T01:23:56.556Z,2526.00
2023-05-10T01:24:56.589Z,2534.00
2023-05-10T01:25:56.603Z,2535.00
2023-05-10T01:26:56.561Z,2535.00
2023-05-10T01:27:56.580Z,2527.00
2023-05-10T01:28:56.546Z,2525.00
2023-05-10T01:30:13.635Z,2529.00
2023-05-10T01:30:57.611Z,2530.00
2023-05-10T01:31:56.574Z,2533.00
2023-05-10T01:32:56.630Z,2536.00
2023-05-10T01:33:56.526Z,2545.00
2023-05-10T01:34:56.532Z,2549.00
2023-05-10T01:35:56.506Z,2541.00
2023-05-10T01:36:56.525Z,2541.00
2023-05-10T01:37:56.503Z,2551.00
2023-05-10T01:38:56.507Z,2551.00
2023-05-10T01:39:56.501Z,2556.00
2023-05-10T01:40:56.471Z,2561.00
2023-05-10T01:41:56.483Z,2546.00
2023-05-10T01:42:56.465Z,2567.00
2023-05-10T01:43:56.468Z,2563.00
2023-05-10T01:44:56.478Z,2541.00
2023-05-10T01:45:56.434Z,2563.00
2023-05-10T01:46:56.514Z,2560.00
2023-05-10T01:47:56.473Z,2571.00
2023-05-10T01:48:56.464Z,2568.00
2023-05-10T01:49:56.448Z,2576.00
2023-05-10T01:50:56.430Z,2570.00
2023-05-10T01:51:56.443Z,2581.00
2023-05-10T01:52:56.410Z,2587.00
2023-05-10T01:53:56.439Z,2578.00
2023-05-10T01:54:56.412Z,2594.00
2023-05-10T01:55:56.409Z,2585.00
2023-05-10T01:56:56.385Z,2593.00
2023-05-10T01:57:56.395Z,2591.00
2023-05-10T01:58:56.400Z,2592.00
2023-05-10T01:59:56.375Z,2603.00
2023-05-10T02:00:56.405Z,2616.00
2023-05-10T02:01:56.353Z,2613.00
2023-05-10T02:02:56.380Z,2599.00
2023-05-10T02:03:56.416Z,2597.00
2023-05-10T02:04:56.313Z,2604.00
2023-05-10T02:05:56.334Z,2605.00
2023-05-10T02:06:56.344Z,2620.00
2023-05-10T02:07:56.352Z,2598.00
2023-05-10T02:08:56.289Z,2600.00
2023-05-10T02:09:56.297Z,2610.00
2023-05-10T02:10:56.297Z,2601.00
2023-05-10T02:11:56.307Z,2615.00
2023-05-10T02:12:56.319Z,2607.00
2023-05-10T02:13:56.309Z,2617.00
2023-05-10T02:14:56.292Z,2616.00
2023-05-10T02:15:56.237Z,2611.00
2023-05-10T02:16:56.268Z,2616.00
2023-05-10T02:17:56.273Z,2609.00
2023-05-10T02:18:56.276Z,2609.00
2023-05-10T02:19:56.222Z,2627.00
2023-05-10T02:20:56.257Z,2618.00
2023-05-10T02:21:56.235Z,2627.00
2023-05-10T02:22:56.211Z,2611.00
2023-05-10T02:23:56.202Z,2615.00
2023-05-10T02:24:56.198Z,2610.00
2023-05-10T02:25:56.203Z,2602.00
2023-05-10T02:26:56.238Z,2607.00
2023-05-10T02:27:56.203Z,2615.00
2023-05-10T02:28:56.204Z,2609.00
2023-05-10T02:29:56.171Z,2604.00
2023-05-10T02:30:56.142Z,2602.00
2023-05-10T02:31:56.292Z,2595.00
2023-05-10T02:32:56.168Z,2595.00
2023-05-10T02:33:56.156Z,2594.00
2023-05-10T02:34:56.159Z,2602.00
2023-05-10T02:35:56.145Z,2591.00
2023-05-10T02:36:56.144Z,2595.00
2023-05-10T02:37:56.143Z,2593.00
2023-05-10T02:38:56.157Z,2566.00
2023-05-10T02:39:56.140Z,2579.00
2023-05-10T02:40:56.109Z,2575.00
2023-05-10T02:41:56.091Z,2573.00
2023-05-10T02:42:56.125Z,2560.00
2023-05-10T02:43:56.106Z,2568.00
2023-05-10T02:44:56.093Z,2564.00
2023-05-10T02:45:56.172Z,2549.00
2023-05-10T02:46:56.100Z,2553.00
2023-05-10T02:47:56.084Z,2534.00
2023-05-10T02:48:56.066Z,2522.00
2023-05-10T02:49:56.049Z,2530.00
2023-05-10T02:50:56.032Z,2510.00
2023-05-10T02:51:56.036Z,2524.00
2023-05-10T02:52:56.044Z,2526.00
2023-05-10T02:53:56.013Z,2526.00
2023-05-10T02:54:56.020Z,2522.00
2023-05-10T02:55:56.008Z,2529.00
2023-05-10T02:56:56.016Z,2551.00
2023-05-10T02:57:55.981Z,2517.00
2023-05-10T02:58:55.982Z,2522.00
2023-05-10T02:59:55.984Z,2524.00
2023-05-10T03:00:55.991Z,2505.00
2023-05-10T03:01:55.986Z,2503.00
2023-05-10T03:02:56.043Z,2504.00
2023-05-10T03:03:55.952Z,2501.00
2023-05-10T03:04:56.011Z,2505.00
2023-05-10T03:05:55.950Z,2507.00
2023-05-10T03:06:55.956Z,2505.00
2023-05-10T03:07:55.967Z,2504.00
2023-05-10T03:08:55.959Z,2490.00
2023-05-10T03:09:55.943Z,2505.00
2023-05-10T03:10:55.959Z,2497.00
2023-05-10T03:11:55.962Z,2495.00
2023-05-10T03:12:55.999Z,2498.00
2023-05-10T03:13:56.651Z,2501.00
2023-05-10T03:14:55.943Z,2492.00
2023-05-10T03:15:55.946Z,2483.00
2023-05-10T03:16:55.934Z,2480.00
2023-05-10T03:17:55.962Z,2495.00
2023-05-10T03:18:55.920Z,2499.00
2023-05-10T03:19:55.973Z,2497.00
2023-05-10T03:20:55.968Z,2485.00
2023-05-10T03:21:55.928Z,2494.00
2023-05-10T03:22:55.980Z,2492.00
2023-05-10T03:23:55.959Z,2493.00
2023-05-10T03:24:55.930Z,2482.00
2023-05-10T03:25:55.956Z,2479.00
2023-05-10T03:26:55.929Z,2483.00
2023-05-10T03:27:55.915Z,2476.00
2023-05-10T03:28:55.981Z,2488.00
2023-05-10T03:29:55.950Z,2482.00
2023-05-10T03:30:55.929Z,2486.00
2023-05-10T03:31:55.993Z,2493.00
2023-05-10T03:32:55.956Z,2483.00
2023-05-10T03:33:55.944Z,2491.00
2023-05-10T03:34:55.921Z,2472.00
2023-05-10T03:35:55.916Z,2489.00
2023-05-10T03:36:55.913Z,2484.00
2023-05-10T03:37:55.877Z,2488.00
2023-05-10T03:38:55.881Z,2479.00
2023-05-10T03:39:55.908Z,2491.00
2023-05-10T03:40:55.872Z,2487.00
2023-05-10T03:41:55.871Z,2496.00
2023-05-10T03:42:55.883Z,2477.00
2023-05-10T03:43:55.938Z,2458.00
2023-05-10T03:44:55.885Z,2459.00
2023-05-10T03:45:55.895Z,2462.00
2023-05-10T03:46:55.903Z,2470.00
2023-05-10T03:47:55.883Z,2455.00
2023-05-10T03:48:55.857Z,2467.00
2023-05-10T03:49:55.852Z,2463.00
2023-05-10T03:50:55.891Z,2454.00
2023-05-10T03:51:55.845Z,2472.00
2023-05-10T03:52:55.867Z,2465.00
2023-05-10T03:53:55.865Z,2449.00
2023-05-10T03:54:55.865Z,2446.00
2023-05-10T03:55:55.863Z,2462.00
2023-05-10T03:56:55.866Z,2451.00
2023-05-10T03:57:55.827Z,2442.00
2023-05-10T03:58:55.840Z,2445.00
2023-05-10T03:59:55.857Z,2421.00
2023-05-10T04:00:55.814Z,2419.00
2023-05-10T04:01:55.858Z,2429.00
2023-05-10T04:02:55.886Z,2433.00
2023-05-10T04:03:55.852Z,2421.00
2023-05-10T04:04:55.845Z,2420.00
2023-05-10T04:05:55.854Z,2416.00
2023-05-10T04:06:55.833Z,2415.00
2023-05-10T04:07:55.841Z,2420.00
2023-05-10T04:08:55.831Z,2424.00
2023-05-10T04:09:55.869Z,2427.00
2023-05-10T04:10:55.831Z,2422.00
2023-05-10T04:11:55.860Z,2421.00
2023-05-10T04:12:55.851Z,2413.00
2023-05-10T04:13:55.804Z,2412.00
2023-05-10T04:14:55.846Z,2407.00
2023-05-10T04:15:55.863Z,2388.00
2023-05-10T04:16:55.870Z,2395.00
2023-05-10T04:17:55.877Z,2390.00
2023-05-10T04:18:55.802Z,2392.00
2023-05-10T04:19:55.846Z,2383.00
2023-05-10T04:20:56.169Z,2370.00
2023-05-10T04:21:56.241Z,2390.00
2023-05-10T04:22:55.922Z,2375.00
2023-05-10T04:23:55.956Z,2374.00
2023-05-10T04:24:56.033Z,2385.00
2023-05-10T04:25:56.064Z,2376.00
2023-05-10T04:26:57.765Z,2376.00
2023-05-10T04:27:56.160Z,2359.00
2023-05-10T04:28:56.145Z,2370.00
2023-05-10T04:29:56.185Z,2381.00
2023-05-10T04:30:56.161Z,2375.00
2023-05-10T04:31:56.143Z,2356.00
2023-05-10T04:32:56.202Z,2356.00
2023-05-10T04:33:56.156Z,2358.00
2023-05-10T04:34:56.127Z,2351.00
2023-05-10T04:35:56.115Z,2359.00
2023-05-10T04:36:56.104Z,2357.00
2023-05-10T04:37:56.136Z,2353.00
2023-05-10T04:38:56.145Z,2344.00
2023-05-10T04:39:56.125Z,2339.00
2023-05-10T04:40:56.141Z,2336.00
2023-05-10T04:41:56.118Z,2334.00
2023-05-10T04:42:56.147Z,2322.00
2023-05-10T04:43:56.110Z,2313.00
2023-05-10T04:44:56.105Z,2315.00
2023-05-10T04:45:56.097Z,2307.00
2023-05-10T04:46:56.101Z,2286.00
2023-05-10T04:47:56.165Z,2290.00
2023-05-10T04:48:56.112Z,2289.00
2023-05-10T04:49:56.125Z,2306.00
2023-05-10T04:50:56.092Z,2303.00
2023-05-10T04:51:56.098Z,2303.00
2023-05-10T04:52:56.107Z,2306.00
2023-05-10T04:54:05.286Z,2304.00
2023-05-10T04:54:57.089Z,2305.00
2023-05-10T04:55:56.079Z,2306.00
2023-05-10T04:56:56.063Z,2305.00
2023-05-10T04:57:56.092Z,2304.00
2023-05-10T04:58:56.077Z,2307.00
2023-05-10T04:59:56.038Z,2301.00
2023-05-10T05:01:03.018Z,2305.00
2023-05-10T05:01:56.150Z,2307.00
2023-05-10T05:02:56.114Z,2310.00
2023-05-10T05:03:56.167Z,2313.00
2023-05-10T05:04:56.016Z,2319.00
2023-05-10T05:05:56.001Z,2331.00
2023-05-10T05:06:55.972Z,2338.00
2023-05-10T05:07:55.974Z,2344.00
2023-05-10T05:08:55.996Z,2327.00
2023-05-10T05:09:56.007Z,2346.00
2023-05-10T05:10:55.980Z,2341.00
2023-05-10T05:11:55.970Z,2322.00
2023-05-10T05:12:55.972Z,2326.00
2023-05-10T05:13:55.956Z,2328.00
2023-05-10T05:14:55.925Z,2323.00
2023-05-10T05:15:55.946Z,2303.00
2023-05-10T05:16:55.933Z,2313.00
2023-05-10T05:17:56.041Z,2314.00
2023-05-10T05:18:55.915Z,2312.00
2023-05-10T05:19:55.900Z,2293.00
2023-05-10T05:20:55.908Z,2241.00
2023-05-10T05:21:55.893Z,2088.00
2023-05-10T05:22:55.878Z,1998.00
2023-05-10T05:23:55.863Z,1967.00
2023-05-10T05:24:55.889Z,1945.00
2023-05-10T05:25:55.865Z,1909.00
2023-05-10T05:26:55.884Z,1901.00
2023-05-10T05:27:55.842Z,1920.00
2023-05-10T05:28:55.834Z,1899.00
2023-05-10T05:29:55.837Z,1904.00
2023-05-10T05:30:55.847Z,1951.00
2023-05-10T05:31:55.951Z,1989.00
2023-05-10T05:32:55.852Z,2025.00
2023-05-10T05:33:56.207Z,2063.00
2023-05-10T05:34:55.803Z,2106.00
2023-05-10T05:35:55.796Z,2114.00
2023-05-10T05:36:55.767Z,2139.00
2023-05-10T05:37:55.770Z,2131.00
2023-05-10T05:38:56.227Z,2225.00
2023-05-10T05:39:55.755Z,2441.00
2023-05-10T05:40:55.792Z,2515.00
2023-05-10T05:41:55.750Z,2546.00
2023-05-10T05:42:55.771Z,2569.00
2023-05-10T05:43:56.209Z,2594.00
2023-05-10T05:44:55.738Z,2719.00
2023-05-10T05:46:02.784Z,2695.00
2023-05-10T05:46:55.746Z,2697.00
2023-05-10T05:47:55.832Z,2705.00
2023-05-10T05:48:55.750Z,2725.00
2023-05-10T05:49:55.718Z,2762.00
2023-05-10T05:50:55.693Z,2819.00
2023-05-10T05:51:55.681Z,2865.00
2023-05-10T05:52:55.711Z,2896.00
2023-05-10T05:53:55.752Z,2916.00
2023-05-10T05:54:55.667Z,2954.00
2023-05-10T05:55:55.688Z,2963.00
2023-05-10T05:56:55.670Z,2956.00
2023-05-10T05:57:55.631Z,3006.00
2023-05-10T05:58:55.638Z,3036.00
2023-05-10T05:59:55.613Z,3043.00
2023-05-10T06:00:55.624Z,3059.00
2023-05-10T06:01:55.730Z,3071.00
2023-05-10T06:02:55.678Z,3055.00
2023-05-10T06:03:55.711Z,3027.00
2023-05-10T06:04:55.635Z,3010.00
2023-05-10T06:05:55.597Z,3036.00
2023-05-10T06:06:55.606Z,3105.00
2023-05-10T06:07:55.577Z,3096.00
2023-05-10T06:08:55.577Z,3079.00
2023-05-10T06:09:55.567Z,3086.00
2023-05-10T06:10:55.562Z,3095.00
2023-05-10T06:11:55.548Z,3107.00
2023-05-10T06:12:55.616Z,3117.00
2023-05-10T06:13:55.562Z,3132.00
2023-05-10T06:14:55.542Z,3152.00
2023-05-10T06:15:55.520Z,3156.00
2023-05-10T06:16:55.617Z,3192.00
2023-05-10T06:17:56.210Z,3193.00
2023-05-10T06:18:55.508Z,3217.00
2023-05-10T06:19:55.616Z,3245.00
2023-05-10T06:20:55.569Z,3262.00
2023-05-10T06:21:55.601Z,3276.00
2023-05-10T06:22:55.640Z,3299.00
2023-05-10T06:23:55.680Z,3307.00
2023-05-10T06:24:55.712Z,3314.00
2023-05-10T06:25:55.729Z,3330.00
2023-05-10T06:26:55.775Z,3336.00
2023-05-10T06:27:55.792Z,3348.00
2023-05-10T06:28:55.814Z,3380.00
2023-05-10T06:30:02.068Z,3381.00
2023-05-10T06:30:56.813Z,3383.00
2023-05-10T06:31:55.966Z,3388.00
2023-05-10T06:32:55.845Z,3394.00
2023-05-10T06:33:56.739Z,3400.00
2023-05-10T06:34:55.833Z,3424.00
2023-05-10T06:35:55.820Z,3421.00
2023-05-10T06:36:55.885Z,3445.00
2023-05-10T06:37:55.898Z,3346.00
2023-05-10T06:38:55.927Z,3114.00
2023-05-10T06:39:56.007Z,2979.00
2023-05-10T06:40:55.975Z,2903.00
2023-05-10T06:41:55.991Z,2954.00
2023-05-10T06:42:56.022Z,3055.00
2023-05-10T06:43:55.980Z,3138.00
2023-05-10T06:44:55.997Z,3166.00
2023-05-10T06:45:56.050Z,3181.00
2023-05-10T06:46:56.123Z,3199.00
2023-05-10T06:47:56.191Z,3195.00
2023-05-10T06:48:56.223Z,3223.00
2023-05-10T06:49:56.781Z,3223.00
2023-05-10T06:50:56.314Z,3229.00
2023-05-10T06:51:56.330Z,3230.00
2023-05-10T06:52:56.401Z,3246.00
2023-05-10T06:53:56.456Z,3259.00
2023-05-10T06:54:56.469Z,3258.00
2023-05-10T06:55:56.493Z,3264.00
2023-05-10T06:56:56.983Z,3274.00
2023-05-10T06:57:56.732Z,3281.00
2023-05-10T06:58:56.595Z,3299.00
2023-05-10T06:59:56.586Z,3300.00
2023-05-10T07:00:56.603Z,3301.00
2023-05-10T07:01:56.597Z,3315.00
2023-05-10T07:02:56.693Z,3344.00
2023-05-10T07:03:56.625Z,3349.00
2023-05-10T07:04:56.807Z,3366.00
2023-05-10T07:05:56.706Z,3384.00
2023-05-10T07:06:56.752Z,3387.00
2023-05-10T07:07:56.758Z,3390.00
2023-05-10T07:08:56.792Z,3388.00
2023-05-10T07:09:56.792Z,3378.00
2023-05-10T07:10:56.818Z,3368.00
2023-05-10T07:11:56.805Z,3369.00
2023-05-10T07:12:56.945Z,3355.00
2023-05-10T07:13:57.081Z,3352.00
2023-05-10T07:14:57.285Z,3347.00
2023-05-10T07:15:56.949Z,3132.00
2023-05-10T07:16:56.979Z,2957.00
2023-05-10T07:17:57.092Z,2840.00
2023-05-10T07:18:57.081Z,2780.00
2023-05-10T07:19:57.115Z,2744.00
2023-05-10T07:20:57.143Z,2721.00
2023-05-10T07:21:57.123Z,2634.00
2023-05-10T07:22:57.109Z,2578.00
2023-05-10T07:23:57.148Z,2538.00
2023-05-10T07:24:57.210Z,2525.00
2023-05-10T07:25:57.242Z,2510.00
2023-05-10T07:26:57.251Z,2483.00
2023-05-10T07:27:57.241Z,2463.00
2023-05-10T07:28:57.303Z,2409.00
2023-05-10T07:29:57.343Z,2391.00
2023-05-10T07:30:57.434Z,2345.00
2023-05-10T07:31:58.828Z,2392.00
2023-05-10T07:32:57.431Z,2378.00
2023-05-10T07:33:57.449Z,2378.00
2023-05-10T07:34:57.531Z,2361.00
2023-05-10T07:35:57.554Z,2363.00
2023-05-10T07:36:57.662Z,2430.00
2023-05-10T07:37:57.718Z,2431.00
2023-05-10T07:38:57.765Z,2381.00
2023-05-10T07:39:57.851Z,2340.00
2023-05-10T07:40:57.872Z,2326.00
2023-05-10T07:41:57.982Z,2341.00
2023-05-10T07:42:57.958Z,2282.00
2023-05-10T07:43:58.006Z,2317.00
2023-05-10T07:44:58.099Z,2315.00
2023-05-10T07:45:58.123Z,2262.00
2023-05-10T07:46:58.040Z,2209.00
2023-05-10T07:47:58.087Z,2226.00
2023-05-10T07:48:58.111Z,2192.00
2023-05-10T07:49:58.162Z,2166.00
2023-05-10T07:50:58.227Z,2210.00
2023-05-10T07:51:58.251Z,2244.00
2023-05-10T07:52:58.290Z,2245.00
2023-05-10T07:53:58.387Z,2269.00
2023-05-10T07:54:58.394Z,2268.00
2023-05-10T07:55:58.393Z,2292.00
2023-05-10T07:56:58.473Z,2297.00
2023-05-10T07:57:58.475Z,2310.00
2023-05-10T07:58:58.483Z,2317.00
2023-05-10T07:59:58.801Z,2323.00
2023-05-10T08:00:58.492Z,2307.00
2023-05-10T08:01:58.545Z,2320.00
2023-05-10T08:02:58.653Z,2315.00
2023-05-10T08:03:58.628Z,2305.00
2023-05-10T08:04:58.574Z,2310.00
2023-05-10T08:05:58.562Z,2320.00
2023-05-10T08:06:58.564Z,2334.00
2023-05-10T08:07:58.562Z,2338.00
2023-05-10T08:08:58.641Z,2334.00
2023-05-10T08:09:58.613Z,2330.00
2023-05-10T08:10:58.612Z,2332.00
2023-05-10T08:11:58.591Z,2332.00
2023-05-10T08:12:58.611Z,2337.00
2023-05-10T08:13:58.633Z,2331.00
2023-05-10T08:14:58.621Z,2336.00
2023-05-10T08:15:58.667Z,2341.00
2023-05-10T08:16:58.597Z,2336.00
2023-05-10T08:17:58.667Z,2339.00
2023-05-10T08:18:58.640Z,2335.00
2023-05-10T08:19:58.589Z,2352.00
2023-05-10T08:20:58.632Z,2351.00
2023-05-10T08:21:59.320Z,2345.00
2023-05-10T08:22:58.581Z,2353.00
2023-05-10T08:23:58.572Z,2348.00
2023-05-10T08:24:58.574Z,2342.00
2023-05-10T08:25:58.595Z,2345.00
2023-05-10T08:26:58.613Z,2351.00
2023-05-10T08:27:58.563Z,2345.00
2023-05-10T08:28:58.578Z,2334.00
2023-05-10T08:29:58.679Z,2344.00
2023-05-10T08:30:58.837Z,2344.00
2023-05-10T08:31:58.554Z,2352.00
2023-05-10T08:32:58.680Z,2343.00
2023-05-10T08:33:58.666Z,2345.00
2023-05-10T08:34:58.596Z,2349.00
2023-05-10T08:35:58.844Z,2341.00
2023-05-10T08:36:58.587Z,2335.00
2023-05-10T08:37:58.621Z,2323.00
2023-05-10T08:38:58.606Z,2300.00
2023-05-10T08:39:58.589Z,2324.00
2023-05-10T08:40:58.849Z,2330.00
2023-05-10T08:41:58.607Z,2314.00
2023-05-10T08:42:58.628Z,2311.00
2023-05-10T08:43:58.585Z,2306.00
2023-05-10T08:44:58.586Z,2306.00
2023-05-10T08:45:58.618Z,2292.00
2023-05-10T08:46:58.677Z,2294.00
2023-05-10T08:47:58.614Z,2302.00
2023-05-10T08:48:58.560Z,2280.00
2023-05-10T08:49:58.549Z,2261.00
2023-05-10T08:50:58.810Z,2265.00
2023-05-10T08:51:58.595Z,2245.00
2023-05-10T08:52:58.604Z,2256.00
2023-05-10T08:53:58.625Z,2252.00
2023-05-10T08:54:58.583Z,2251.00
2023-05-10T08:55:58.611Z,2243.00
2023-05-10T08:56:58.588Z,2224.00
2023-05-10T08:57:58.561Z,2221.00
2023-05-10T08:58:58.589Z,2212.00
2023-05-10T08:59:58.595Z,2227.00
2023-05-10T09:00:58.850Z,2218.00
2023-05-10T09:01:58.576Z,2227.00
2023-05-10T09:02:58.605Z,2208.00
2023-05-10T09:03:58.682Z,2193.00
2023-05-10T09:04:58.732Z,2184.00
2023-05-10T09:05:58.833Z,2179.00
2023-05-10T09:06:58.578Z,2180.00
2023-05-10T09:07:58.608Z,2189.00
2023-05-10T09:08:58.552Z,2169.00
2023-05-10T09:09:58.578Z,2191.00
2023-05-10T09:10:58.840Z,2186.00
2023-05-10T09:11:58.623Z,2167.00
2023-05-10T09:12:59.402Z,2160.00
2023-05-10T09:13:58.542Z,2156.00
2023-05-10T09:14:58.602Z,2152.00
2023-05-10T09:16:02.260Z,2145.00
2023-05-10T09:16:59.651Z,2145.00
2023-05-10T09:17:58.585Z,2117.00
2023-05-10T09:18:58.614Z,2105.00
2023-05-10T09:19:58.527Z,2081.00
2023-05-10T09:20:58.546Z,2097.00
2023-05-10T09:21:58.542Z,2081.00
2023-05-10T09:22:58.497Z,2059.00
2023-05-10T09:23:58.521Z,2074.00
2023-05-10T09:24:58.484Z,2053.00
2023-05-10T09:25:58.491Z,2061.00
2023-05-10T09:26:58.520Z,2068.00
2023-05-10T09:27:58.477Z,2043.00
2023-05-10T09:28:58.520Z,2039.00
2023-05-10T09:29:58.459Z,2033.00
2023-05-10T09:30:58.895Z,2027.00
2023-05-10T09:31:58.472Z,2033.00
2023-05-10T09:32:58.529Z,2044.00
2023-05-10T09:33:58.450Z,2050.00
2023-05-10T09:34:58.486Z,2162.00
2023-05-10T09:35:58.482Z,1897.00
2023-05-10T09:36:58.426Z,1964.00
2023-05-10T09:37:58.443Z,1941.00
2023-05-10T09:38:58.464Z,1884.00
2023-05-10T09:39:58.476Z,1811.00
2023-05-10T09:40:58.833Z,1818.00
2023-05-10T09:41:58.519Z,1805.00
2023-05-10T09:42:58.520Z,1821.00
2023-05-10T09:43:58.594Z,1900.00
2023-05-10T09:44:58.543Z,1925.00
2023-05-10T09:45:58.869Z,2083.00
2023-05-10T09:46:58.615Z,2152.00
2023-05-10T09:47:58.690Z,2248.00
2023-05-10T09:48:58.732Z,2322.00
2023-05-10T09:49:58.752Z,2398.00
2023-05-10T09:50:58.822Z,2469.00
2023-05-10T09:51:58.791Z,2529.00
2023-05-10T09:52:58.800Z,2602.00
2023-05-10T09:53:58.851Z,2647.00
2023-05-10T09:54:58.792Z,2750.00
2023-05-10T09:55:58.850Z,2792.00
2023-05-10T09:56:58.919Z,2830.00
2023-05-10T09:57:58.970Z,2860.00
2023-05-10T09:58:59.004Z,2897.00
2023-05-10T09:59:59.058Z,2927.00
2023-05-10T10:00:59.368Z,2965.00
2023-05-10T10:01:59.298Z,2992.00
2023-05-10T10:02:59.225Z,3000.00
2023-05-10T10:03:59.178Z,3033.00
2023-05-10T10:04:59.249Z,3061.00
2023-05-10T10:05:59.256Z,3085.00
2023-05-10T10:06:59.217Z,3110.00
2023-05-10T10:07:59.268Z,3134.00
2023-05-10T10:08:59.239Z,3146.00
2023-05-10T10:09:59.268Z,3162.00
2023-05-10T10:10:59.275Z,3186.00
2023-05-10T10:11:59.281Z,3201.00
2023-05-10T10:12:59.312Z,3222.00
2023-05-10T10:13:59.316Z,3258.00
2023-05-10T10:14:59.324Z,3330.00
2023-05-10T10:15:59.413Z,3498.00
2023-05-10T10:17:08.358Z,3562.00
2023-05-10T10:18:00.410Z,3564.00
2023-05-10T10:18:59.414Z,3575.00
2023-05-10T10:19:59.304Z,3599.00
2023-05-10T10:20:59.303Z,3621.00
2023-05-10T10:21:59.320Z,3668.00
2023-05-10T10:22:59.281Z,3670.00
2023-05-10T10:23:59.266Z,3694.00
2023-05-10T10:24:59.281Z,3703.00
2023-05-10T10:25:59.250Z,3699.00
2023-05-10T10:26:59.361Z,3704.00
2023-05-10T10:27:59.247Z,3698.00
2023-05-10T10:28:59.244Z,3695.00
2023-05-10T10:29:59.247Z,3687.00
2023-05-10T10:30:59.284Z,3662.00
2023-05-10T10:31:59.292Z,3612.00
2023-05-10T10:32:59.297Z,3266.00
2023-05-10T10:33:59.192Z,3224.00
2023-05-10T10:34:59.201Z,3099.00
2023-05-10T10:35:59.162Z,2956.00
2023-05-10T10:36:59.384Z,2775.00
2023-05-10T10:37:59.187Z,2360.00
2023-05-10T10:38:59.159Z,2113.00
2023-05-10T10:39:59.356Z,1939.00
2023-05-10T10:40:59.199Z,1768.00
2023-05-10T10:41:59.402Z,1593.00
2023-05-10T10:42:59.265Z,1534.00
2023-05-10T10:43:59.279Z,1543.00
2023-05-10T10:44:59.339Z,1466.00
2023-05-10T10:45:59.371Z,1441.00
2023-05-10T10:46:59.516Z,1372.00
2023-05-10T10:47:59.501Z,1338.00
2023-05-10T10:48:59.504Z,1315.00
2023-05-10T10:49:59.472Z,1288.00
2023-05-10T10:50:59.429Z,1221.00
2023-05-10T10:51:59.463Z,1207.00
2023-05-10T10:52:59.534Z,1162.00
2023-05-10T10:53:59.522Z,1079.00
2023-05-10T10:54:59.540Z,1073.00
2023-05-10T10:55:59.616Z,1067.00
2023-05-10T10:56:59.563Z,1069.00
2023-05-10T10:57:59.606Z,1056.00
2023-05-10T10:58:59.605Z,1055.00
2023-05-10T10:59:59.656Z,1007.00
2023-05-10T11:00:59.715Z,959.00
2023-05-10T11:01:59.733Z,941.00
2023-05-10T11:02:59.802Z,879.00
2023-05-10T11:03:59.793Z,860.00
2023-05-10T11:04:59.810Z,898.00
2023-05-10T11:05:59.808Z,939.00
2023-05-10T11:07:00.819Z,940.00
2023-05-10T11:07:59.799Z,943.00
2023-05-10T11:08:59.786Z,941.00
2023-05-10T11:09:59.817Z,939.00
2023-05-10T11:10:59.786Z,899.00
2023-05-10T11:11:59.833Z,808.00
2023-05-10T11:12:59.767Z,815.00
2023-05-10T11:13:59.823Z,675.00
2023-05-10T11:14:59.843Z,662.00
2023-05-10T11:15:59.740Z,696.00
2023-05-10T11:17:00.523Z,677.00
2023-05-10T11:17:59.808Z,668.00
2023-05-10T11:18:59.775Z,760.00
2023-05-10T11:19:59.696Z,800.00
2023-05-10T11:20:59.757Z,830.00
2023-05-10T11:21:59.716Z,823.00
2023-05-10T11:22:59.714Z,774.00
2023-05-10T11:23:59.761Z,703.00
2023-05-10T11:24:59.839Z,722.00
2023-05-10T11:25:59.782Z,750.00
2023-05-10T11:26:59.799Z,827.00
2023-05-10T11:27:59.945Z,1079.00
2023-05-10T11:29:00.206Z,1188.00
2023-05-10T11:30:00.390Z,1272.00
2023-05-10T11:30:59.939Z,1283.00
2023-05-10T11:32:00.008Z,1284.00
2023-05-10T11:33:00.593Z,1301.00
2023-05-10T11:34:00.007Z,1302.00
2023-05-10T11:35:00.042Z,1356.00
2023-05-10T11:36:00.049Z,1361.00
2023-05-10T11:37:00.120Z,1415.00
2023-05-10T11:38:00.461Z,1421.00
2023-05-10T11:39:00.086Z,1420.00
2023-05-10T11:40:00.033Z,1365.00
2023-05-10T11:41:00.032Z,1375.00
2023-05-10T11:42:00.015Z,1373.00
2023-05-10T11:43:00.051Z,1408.00
2023-05-10T11:44:00.024Z,1402.00
2023-05-10T11:44:59.984Z,1388.00
2023-05-10T11:46:00.068Z,1397.00
2023-05-10T11:47:00.003Z,1411.00
2023-05-10T11:48:00.094Z,1448.00
2023-05-10T11:49:00.052Z,1489.00
2023-05-10T11:50:00.125Z,1463.00
2023-05-10T11:51:00.175Z,1468.00
2023-05-10T11:52:00.173Z,1460.00
2023-05-10T11:53:00.238Z,1445.00
2023-05-10T11:54:00.250Z,1409.00
2023-05-10T11:55:00.316Z,1426.00
2023-05-10T11:56:00.401Z,1361.00
2023-05-10T11:57:00.391Z,1319.00
2023-05-10T11:58:00.467Z,1272.00
2023-05-10T11:59:00.500Z,1226.00
2023-05-10T12:00:00.560Z,1174.00
2023-05-10T12:01:00.648Z,1148.00
2023-05-10T12:02:00.660Z,1133.00
2023-05-10T12:03:00.831Z,1107.00
2023-05-10T12:04:01.059Z,1105.00
2023-05-10T12:05:00.921Z,1119.00
2023-05-10T12:06:00.882Z,1118.00
2023-05-10T12:07:00.918Z,1089.00